sensor_id;sensor_type;location;lat;lon;timestamp;P1;durP1;ratioP1;P2;durP2;ratioP2
73474;SDS011;61711;52.266;10.542;2023-02-22T00:00:18;43.25;;;15.55;;
73474;SDS011;61711;52.266;10.542;2023-02-22T00:02:50;40.45;;;14.90;;
73474;SDS011;61711;52.266;10.542;2023-02-22T00:05:17;41.90;;;15.05;;
73474;SDS011;61711;52.266;10.542;2023-02-22T00:07:48;39.22;;;15.52;;
73474;SDS011;61711;52.266;10.542;2023-02-22T00:10:15;39.13;;;15.10;;
73474;SDS011;61711;52.266;10.542;2023-02-22T00:12:45;38.38;;;14.38;;
73474;SDS011;61711;52.266;10.542;2023-02-22T00:15:12;42.35;;;14.77;;
73474;SDS011;61711;52.266;10.542;2023-02-22T00:17:38;40.83;;;14.77;;
73474;SDS011;61711;52.266;10.542;2023-02-22T00:20:04;37.95;;;14.65;;
73474;SDS011;61711;52.266;10.542;2023-02-22T00:22:31;40.20;;;13.68;;
73474;SDS011;61711;52.266;10.542;2023-02-22T00:24:57;38.97;;;14.93;;
73474;SDS011;61711;52.266;10.542;2023-02-22T00:27:23;43.97;;;15.07;;
73474;SDS011;61711;52.266;10.542;2023-02-22T00:29:49;38.67;;;15.45;;
73474;SDS011;61711;52.266;10.542;2023-02-22T00:32:15;46.30;;;15.30;;
73474;SDS011;61711;52.266;10.542;2023-02-22T00:34:41;38.92;;;14.90;;
73474;SDS011;61711;52.266;10.542;2023-02-22T00:37:08;37.42;;;14.40;;
73474;SDS011;61711;52.266;10.542;2023-02-22T00:39:34;40.03;;;14.82;;
73474;SDS011;61711;52.266;10.542;2023-02-22T00:42:02;39.55;;;14.32;;
73474;SDS011;61711;52.266;10.542;2023-02-22T00:44:28;42.63;;;16.00;;
73474;SDS011;61711;52.266;10.542;2023-02-22T00:46:54;40.00;;;14.82;;
73474;SDS011;61711;52.266;10.542;2023-02-22T00:49:20;39.20;;;14.90;;
73474;SDS011;61711;52.266;10.542;2023-02-22T00:51:46;43.63;;;16.02;;
73474;SDS011;61711;52.266;10.542;2023-02-22T00:54:12;49.65;;;16.95;;
73474;SDS011;61711;52.266;10.542;2023-02-22T00:56:38;39.72;;;13.90;;
73474;SDS011;61711;52.266;10.542;2023-02-22T00:59:04;43.60;;;15.57;;
73474;SDS011;61711;52.266;10.542;2023-02-22T01:01:30;40.65;;;15.30;;
73474;SDS011;61711;52.266;10.542;2023-02-22T01:03:56;38.17;;;14.75;;
73474;SDS011;61711;52.266;10.542;2023-02-22T01:06:23;42.25;;;14.80;;
73474;SDS011;61711;52.266;10.542;2023-02-22T01:08:49;38.35;;;14.32;;
73474;SDS011;61711;52.266;10.542;2023-02-22T01:11:15;41.67;;;15.07;;
73474;SDS011;61711;52.266;10.542;2023-02-22T01:13:41;37.63;;;14.20;;
73474;SDS011;61711;52.266;10.542;2023-02-22T01:16:09;43.50;;;15.10;;
73474;SDS011;61711;52.266;10.542;2023-02-22T01:18:35;40.85;;;14.52;;
73474;SDS011;61711;52.266;10.542;2023-02-22T01:21:02;43.55;;;15.05;;
73474;SDS011;61711;52.266;10.542;2023-02-22T01:23:28;39.42;;;15.77;;
73474;SDS011;61711;52.266;10.542;2023-02-22T01:25:54;39.67;;;14.25;;
73474;SDS011;61711;52.266;10.542;2023-02-22T01:28:20;40.20;;;14.73;;
73474;SDS011;61711;52.266;10.542;2023-02-22T01:30:47;48.47;;;15.15;;
73474;SDS011;61711;52.266;10.542;2023-02-22T01:33:13;41.70;;;14.52;;
73474;SDS011;61711;52.266;10.542;2023-02-22T01:35:39;37.92;;;14.18;;
73474;SDS011;61711;52.266;10.542;2023-02-22T01:38:06;41.47;;;14.20;;
73474;SDS011;61711;52.266;10.542;2023-02-22T01:40:42;44.28;;;15.45;;
73474;SDS011;61711;52.266;10.542;2023-02-22T01:45:42;40.78;;;14.52;;
73474;SDS011;61711;52.266;10.542;2023-02-22T01:48:14;38.95;;;14.18;;
73474;SDS011;61711;52.266;10.542;2023-02-22T01:50:53;41.55;;;14.70;;
73474;SDS011;61711;52.266;10.542;2023-02-22T01:53:20;39.45;;;14.68;;
73474;SDS011;61711;52.266;10.542;2023-02-22T01:55:47;36.08;;;13.82;;
73474;SDS011;61711;52.266;10.542;2023-02-22T01:58:13;40.45;;;13.27;;
73474;SDS011;61711;52.266;10.542;2023-02-22T02:00:41;36.78;;;13.77;;
73474;SDS011;61711;52.266;10.542;2023-02-22T02:03:10;40.97;;;13.15;;
73474;SDS011;61711;52.266;10.542;2023-02-22T02:05:38;40.40;;;13.07;;
73474;SDS011;61711;52.266;10.542;2023-02-22T02:10:50;36.33;;;13.38;;
73474;SDS011;61711;52.266;10.542;2023-02-22T02:13:18;41.88;;;13.85;;
73474;SDS011;61711;52.266;10.542;2023-02-22T02:15:44;38.83;;;14.15;;
73474;SDS011;61711;52.266;10.542;2023-02-22T02:18:13;40.78;;;13.57;;
73474;SDS011;61711;52.266;10.542;2023-02-22T02:29:04;37.92;;;13.63;;
73474;SDS011;61711;52.266;10.542;2023-02-22T02:36:38;36.50;;;13.27;;
73474;SDS011;61711;52.266;10.542;2023-02-22T02:41:47;39.95;;;13.60;;
73474;SDS011;61711;52.266;10.542;2023-02-22T02:44:25;38.50;;;13.85;;
73474;SDS011;61711;52.266;10.542;2023-02-22T02:47:00;45.35;;;14.68;;
73474;SDS011;61711;52.266;10.542;2023-02-22T02:49:34;41.22;;;13.65;;
73474;SDS011;61711;52.266;10.542;2023-02-22T02:52:01;41.08;;;13.82;;
73474;SDS011;61711;52.266;10.542;2023-02-22T02:54:28;44.38;;;14.23;;
73474;SDS011;61711;52.266;10.542;2023-02-22T02:56:55;41.03;;;13.50;;
73474;SDS011;61711;52.266;10.542;2023-02-22T02:59:31;43.67;;;14.15;;
73474;SDS011;61711;52.266;10.542;2023-02-22T03:10:15;48.45;;;14.32;;
73474;SDS011;61711;52.266;10.542;2023-02-22T03:15:17;43.72;;;15.25;;
73474;SDS011;61711;52.266;10.542;2023-02-22T03:20:24;38.17;;;13.80;;
73474;SDS011;61711;52.266;10.542;2023-02-22T03:23:01;40.20;;;13.45;;
73474;SDS011;61711;52.266;10.542;2023-02-22T03:25:33;42.42;;;14.07;;
73474;SDS011;61711;52.266;10.542;2023-02-22T03:28:02;46.28;;;13.65;;
73474;SDS011;61711;52.266;10.542;2023-02-22T03:30:41;39.88;;;13.80;;
73474;SDS011;61711;52.266;10.542;2023-02-22T03:33:12;38.65;;;12.57;;
73474;SDS011;61711;52.266;10.542;2023-02-22T03:35:41;41.45;;;12.90;;
73474;SDS011;61711;52.266;10.542;2023-02-22T03:38:10;36.38;;;12.30;;
73474;SDS011;61711;52.266;10.542;2023-02-22T03:40:38;40.53;;;13.82;;
73474;SDS011;61711;52.266;10.542;2023-02-22T03:43:08;38.80;;;13.13;;
73474;SDS011;61711;52.266;10.542;2023-02-22T03:45:35;37.13;;;13.25;;
73474;SDS011;61711;52.266;10.542;2023-02-22T03:48:07;44.25;;;13.35;;
73474;SDS011;61711;52.266;10.542;2023-02-22T03:50:38;39.08;;;14.27;;
73474;SDS011;61711;52.266;10.542;2023-02-22T03:53:04;37.78;;;13.48;;
73474;SDS011;61711;52.266;10.542;2023-02-22T03:55:31;38.08;;;13.05;;
73474;SDS011;61711;52.266;10.542;2023-02-22T03:57:58;37.40;;;13.18;;
73474;SDS011;61711;52.266;10.542;2023-02-22T04:00:26;35.58;;;12.82;;
73474;SDS011;61711;52.266;10.542;2023-02-22T04:02:53;36.33;;;12.40;;
73474;SDS011;61711;52.266;10.542;2023-02-22T04:05:19;40.80;;;13.27;;
73474;SDS011;61711;52.266;10.542;2023-02-22T04:07:45;38.50;;;12.55;;
73474;SDS011;61711;52.266;10.542;2023-02-22T04:10:12;44.08;;;13.30;;
73474;SDS011;61711;52.266;10.542;2023-02-22T04:12:38;41.45;;;13.27;;
73474;SDS011;61711;52.266;10.542;2023-02-22T04:15:05;34.15;;;11.65;;
73474;SDS011;61711;52.266;10.542;2023-02-22T04:17:31;30.98;;;11.98;;
73474;SDS011;61711;52.266;10.542;2023-02-22T04:19:57;41.28;;;12.68;;
73474;SDS011;61711;52.266;10.542;2023-02-22T04:22:23;42.13;;;13.63;;
73474;SDS011;61711;52.266;10.542;2023-02-22T04:24:49;43.17;;;13.43;;
73474;SDS011;61711;52.266;10.542;2023-02-22T04:27:15;42.92;;;12.82;;
73474;SDS011;61711;52.266;10.542;2023-02-22T04:29:41;43.17;;;13.52;;
73474;SDS011;61711;52.266;10.542;2023-02-22T04:32:07;42.53;;;12.88;;
73474;SDS011;61711;52.266;10.542;2023-02-22T04:34:33;40.45;;;13.30;;
73474;SDS011;61711;52.266;10.542;2023-02-22T04:36:59;41.78;;;13.77;;
73474;SDS011;61711;52.266;10.542;2023-02-22T04:39:26;39.45;;;13.18;;
73474;SDS011;61711;52.266;10.542;2023-02-22T04:41:52;46.55;;;13.63;;
73474;SDS011;61711;52.266;10.542;2023-02-22T04:44:18;44.15;;;13.93;;
73474;SDS011;61711;52.266;10.542;2023-02-22T04:46:44;39.65;;;13.75;;
73474;SDS011;61711;52.266;10.542;2023-02-22T04:49:10;45.53;;;14.23;;
73474;SDS011;61711;52.266;10.542;2023-02-22T04:51:36;45.03;;;13.90;;
73474;SDS011;61711;52.266;10.542;2023-02-22T04:54:02;44.15;;;13.68;;
73474;SDS011;61711;52.266;10.542;2023-02-22T04:56:28;40.92;;;14.05;;
73474;SDS011;61711;52.266;10.542;2023-02-22T04:58:55;42.83;;;14.80;;
73474;SDS011;61711;52.266;10.542;2023-02-22T05:01:20;45.13;;;13.90;;
73474;SDS011;61711;52.266;10.542;2023-02-22T05:03:47;45.88;;;14.60;;
73474;SDS011;61711;52.266;10.542;2023-02-22T05:06:14;41.53;;;13.23;;
73474;SDS011;61711;52.266;10.542;2023-02-22T05:08:41;45.17;;;14.23;;
73474;SDS011;61711;52.266;10.542;2023-02-22T05:11:07;47.95;;;14.85;;
73474;SDS011;61711;52.266;10.542;2023-02-22T05:13:33;48.38;;;14.75;;
73474;SDS011;61711;52.266;10.542;2023-02-22T05:15:59;44.78;;;14.32;;
73474;SDS011;61711;52.266;10.542;2023-02-22T05:18:26;45.28;;;13.70;;
73474;SDS011;61711;52.266;10.542;2023-02-22T05:20:53;42.03;;;13.38;;
73474;SDS011;61711;52.266;10.542;2023-02-22T05:23:19;50.78;;;14.30;;
73474;SDS011;61711;52.266;10.542;2023-02-22T05:25:45;41.03;;;13.35;;
73474;SDS011;61711;52.266;10.542;2023-02-22T05:28:12;43.97;;;13.38;;
73474;SDS011;61711;52.266;10.542;2023-02-22T05:30:38;48.78;;;14.38;;
73474;SDS011;61711;52.266;10.542;2023-02-22T05:33:04;42.30;;;13.43;;
73474;SDS011;61711;52.266;10.542;2023-02-22T05:35:31;41.72;;;12.88;;
73474;SDS011;61711;52.266;10.542;2023-02-22T05:37:57;42.22;;;14.50;;
73474;SDS011;61711;52.266;10.542;2023-02-22T05:40:26;40.40;;;12.75;;
73474;SDS011;61711;52.266;10.542;2023-02-22T05:42:52;41.53;;;14.18;;
73474;SDS011;61711;52.266;10.542;2023-02-22T05:45:19;39.47;;;12.35;;
73474;SDS011;61711;52.266;10.542;2023-02-22T05:47:45;36.88;;;12.13;;
73474;SDS011;61711;52.266;10.542;2023-02-22T05:50:12;36.63;;;12.13;;
73474;SDS011;61711;52.266;10.542;2023-02-22T05:52:38;35.80;;;11.68;;
73474;SDS011;61711;52.266;10.542;2023-02-22T05:55:05;33.20;;;11.13;;
73474;SDS011;61711;52.266;10.542;2023-02-22T05:57:32;31.55;;;11.05;;
73474;SDS011;61711;52.266;10.542;2023-02-22T05:59:59;30.88;;;10.85;;
73474;SDS011;61711;52.266;10.542;2023-02-22T06:02:25;34.30;;;11.88;;
73474;SDS011;61711;52.266;10.542;2023-02-22T06:04:51;31.45;;;10.90;;
73474;SDS011;61711;52.266;10.542;2023-02-22T06:07:17;33.63;;;10.98;;
73474;SDS011;61711;52.266;10.542;2023-02-22T06:09:43;32.63;;;10.43;;
73474;SDS011;61711;52.266;10.542;2023-02-22T06:12:09;30.42;;;10.90;;
73474;SDS011;61711;52.266;10.542;2023-02-22T06:14:35;31.98;;;10.68;;
73474;SDS011;61711;52.266;10.542;2023-02-22T06:17:01;33.75;;;10.35;;
73474;SDS011;61711;52.266;10.542;2023-02-22T06:19:27;31.15;;;10.73;;
73474;SDS011;61711;52.266;10.542;2023-02-22T06:21:54;31.15;;;11.40;;
73474;SDS011;61711;52.266;10.542;2023-02-22T06:24:20;24.27;;;9.68;;
73474;SDS011;61711;52.266;10.542;2023-02-22T06:26:53;24.85;;;9.13;;
73474;SDS011;61711;52.266;10.542;2023-02-22T06:29:19;25.08;;;9.55;;
73474;SDS011;61711;52.266;10.542;2023-02-22T06:31:45;28.38;;;10.45;;
73474;SDS011;61711;52.266;10.542;2023-02-22T06:34:11;27.95;;;10.48;;
73474;SDS011;61711;52.266;10.542;2023-02-22T06:36:37;32.00;;;10.38;;
73474;SDS011;61711;52.266;10.542;2023-02-22T06:39:03;29.13;;;9.80;;
73474;SDS011;61711;52.266;10.542;2023-02-22T06:41:29;24.33;;;8.93;;
73474;SDS011;61711;52.266;10.542;2023-02-22T06:43:55;23.55;;;9.30;;
73474;SDS011;61711;52.266;10.542;2023-02-22T06:46:21;23.33;;;9.30;;
73474;SDS011;61711;52.266;10.542;2023-02-22T06:48:47;21.98;;;8.20;;
73474;SDS011;61711;52.266;10.542;2023-02-22T06:51:15;28.85;;;9.55;;
73474;SDS011;61711;52.266;10.542;2023-02-22T06:53:41;22.92;;;8.45;;
73474;SDS011;61711;52.266;10.542;2023-02-22T06:56:07;23.73;;;9.00;;
73474;SDS011;61711;52.266;10.542;2023-02-22T06:58:33;26.45;;;8.15;;
73474;SDS011;61711;52.266;10.542;2023-02-22T07:00:59;21.52;;;8.30;;
73474;SDS011;61711;52.266;10.542;2023-02-22T07:03:27;24.73;;;8.65;;
73474;SDS011;61711;52.266;10.542;2023-02-22T07:05:53;22.75;;;8.43;;
73474;SDS011;61711;52.266;10.542;2023-02-22T07:08:19;23.10;;;8.23;;
73474;SDS011;61711;52.266;10.542;2023-02-22T07:10:45;20.50;;;8.38;;
73474;SDS011;61711;52.266;10.542;2023-02-22T07:13:14;20.10;;;7.35;;
73474;SDS011;61711;52.266;10.542;2023-02-22T07:15:40;20.65;;;8.32;;
73474;SDS011;61711;52.266;10.542;2023-02-22T07:18:06;22.38;;;8.00;;
73474;SDS011;61711;52.266;10.542;2023-02-22T07:20:32;21.20;;;7.78;;
73474;SDS011;61711;52.266;10.542;2023-02-22T07:22:59;21.30;;;7.60;;
73474;SDS011;61711;52.266;10.542;2023-02-22T07:25:25;18.90;;;7.28;;
73474;SDS011;61711;52.266;10.542;2023-02-22T07:27:51;20.40;;;8.45;;
73474;SDS011;61711;52.266;10.542;2023-02-22T07:30:28;23.52;;;8.25;;
73474;SDS011;61711;52.266;10.542;2023-02-22T07:32:55;18.52;;;7.28;;
73474;SDS011;61711;52.266;10.542;2023-02-22T07:35:25;21.48;;;8.50;;
73474;SDS011;61711;52.266;10.542;2023-02-22T07:37:52;22.15;;;8.27;;
73474;SDS011;61711;52.266;10.542;2023-02-22T07:40:18;21.20;;;8.45;;
73474;SDS011;61711;52.266;10.542;2023-02-22T07:45:17;20.90;;;8.75;;
73474;SDS011;61711;52.266;10.542;2023-02-22T07:47:44;24.00;;;8.80;;
73474;SDS011;61711;52.266;10.542;2023-02-22T07:50:11;17.67;;;8.45;;
73474;SDS011;61711;52.266;10.542;2023-02-22T07:52:38;18.20;;;7.32;;
73474;SDS011;61711;52.266;10.542;2023-02-22T07:55:04;25.25;;;9.38;;
73474;SDS011;61711;52.266;10.542;2023-02-22T07:57:31;20.33;;;8.10;;
73474;SDS011;61711;52.266;10.542;2023-02-22T07:59:57;20.95;;;8.70;;
73474;SDS011;61711;52.266;10.542;2023-02-22T08:02:24;20.85;;;8.43;;
73474;SDS011;61711;52.266;10.542;2023-02-22T08:04:50;21.45;;;8.40;;
73474;SDS011;61711;52.266;10.542;2023-02-22T08:07:16;21.65;;;8.57;;
73474;SDS011;61711;52.266;10.542;2023-02-22T08:09:42;21.48;;;8.07;;
73474;SDS011;61711;52.266;10.542;2023-02-22T08:12:08;23.17;;;8.88;;
73474;SDS011;61711;52.266;10.542;2023-02-22T08:14:34;20.88;;;8.20;;
73474;SDS011;61711;52.266;10.542;2023-02-22T08:17:01;20.15;;;8.27;;
73474;SDS011;61711;52.266;10.542;2023-02-22T08:19:27;21.02;;;8.57;;
73474;SDS011;61711;52.266;10.542;2023-02-22T08:21:53;18.85;;;7.55;;
73474;SDS011;61711;52.266;10.542;2023-02-22T08:24:23;20.25;;;8.05;;
73474;SDS011;61711;52.266;10.542;2023-02-22T08:26:49;19.27;;;7.70;;
73474;SDS011;61711;52.266;10.542;2023-02-22T08:29:14;17.13;;;7.20;;
73474;SDS011;61711;52.266;10.542;2023-02-22T08:31:41;18.65;;;7.63;;
73474;SDS011;61711;52.266;10.542;2023-02-22T08:34:07;20.50;;;9.25;;
73474;SDS011;61711;52.266;10.542;2023-02-22T08:36:32;15.38;;;6.43;;
73474;SDS011;61711;52.266;10.542;2023-02-22T08:38:59;15.52;;;6.53;;
73474;SDS011;61711;52.266;10.542;2023-02-22T08:41:25;15.32;;;6.70;;
73474;SDS011;61711;52.266;10.542;2023-02-22T08:43:51;14.48;;;6.70;;
73474;SDS011;61711;52.266;10.542;2023-02-22T08:46:17;12.20;;;6.30;;
73474;SDS011;61711;52.266;10.542;2023-02-22T08:48:50;13.80;;;6.55;;
73474;SDS011;61711;52.266;10.542;2023-02-22T08:51:16;16.17;;;6.70;;
73474;SDS011;61711;52.266;10.542;2023-02-22T08:53:42;13.70;;;6.53;;
73474;SDS011;61711;52.266;10.542;2023-02-22T08:56:08;16.10;;;6.57;;
73474;SDS011;61711;52.266;10.542;2023-02-22T08:58:34;14.30;;;6.78;;
73474;SDS011;61711;52.266;10.542;2023-02-22T09:01:00;17.75;;;6.82;;
73474;SDS011;61711;52.266;10.542;2023-02-22T09:03:26;15.85;;;7.00;;
73474;SDS011;61711;52.266;10.542;2023-02-22T09:05:52;14.65;;;6.05;;
73474;SDS011;61711;52.266;10.542;2023-02-22T09:08:18;15.10;;;6.45;;
73474;SDS011;61711;52.266;10.542;2023-02-22T09:10:44;15.52;;;6.45;;
73474;SDS011;61711;52.266;10.542;2023-02-22T09:13:10;14.07;;;6.68;;
73474;SDS011;61711;52.266;10.542;2023-02-22T09:15:37;13.43;;;6.13;;
73474;SDS011;61711;52.266;10.542;2023-02-22T09:18:04;13.43;;;5.90;;
73474;SDS011;61711;52.266;10.542;2023-02-22T09:20:32;14.90;;;6.32;;
73474;SDS011;61711;52.266;10.542;2023-02-22T09:22:59;15.85;;;6.72;;
73474;SDS011;61711;52.266;10.542;2023-02-22T09:25:27;15.52;;;6.85;;
73474;SDS011;61711;52.266;10.542;2023-02-22T09:27:53;14.82;;;6.35;;
73474;SDS011;61711;52.266;10.542;2023-02-22T09:30:25;12.85;;;5.55;;
73474;SDS011;61711;52.266;10.542;2023-02-22T09:32:52;14.93;;;6.15;;
73474;SDS011;61711;52.266;10.542;2023-02-22T09:35:18;14.35;;;6.60;;
73474;SDS011;61711;52.266;10.542;2023-02-22T09:37:44;13.60;;;6.18;;
73474;SDS011;61711;52.266;10.542;2023-02-22T09:40:16;14.80;;;6.50;;
73474;SDS011;61711;52.266;10.542;2023-02-22T09:42:52;16.65;;;6.63;;
73474;SDS011;61711;52.266;10.542;2023-02-22T09:45:26;15.13;;;6.60;;
73474;SDS011;61711;52.266;10.542;2023-02-22T09:47:54;15.90;;;6.18;;
73474;SDS011;61711;52.266;10.542;2023-02-22T09:50:21;15.70;;;6.13;;
73474;SDS011;61711;52.266;10.542;2023-02-22T09:52:56;14.13;;;6.53;;
73474;SDS011;61711;52.266;10.542;2023-02-22T09:57:52;16.00;;;6.50;;
73474;SDS011;61711;52.266;10.542;2023-02-22T10:00:22;14.27;;;6.15;;
73474;SDS011;61711;52.266;10.542;2023-02-22T10:03:16;12.82;;;6.35;;
73474;SDS011;61711;52.266;10.542;2023-02-22T10:05:51;14.73;;;6.47;;
73474;SDS011;61711;52.266;10.542;2023-02-22T10:08:18;18.75;;;6.72;;
73474;SDS011;61711;52.266;10.542;2023-02-22T10:10:46;13.20;;;6.28;;
73474;SDS011;61711;52.266;10.542;2023-02-22T10:21:30;12.93;;;6.15;;
73474;SDS011;61711;52.266;10.542;2023-02-22T10:26:41;16.08;;;7.15;;
73474;SDS011;61711;52.266;10.542;2023-02-22T10:29:16;14.68;;;7.22;;
73474;SDS011;61711;52.266;10.542;2023-02-22T10:31:46;16.17;;;6.82;;
73474;SDS011;61711;52.266;10.542;2023-02-22T10:34:24;15.60;;;6.85;;
73474;SDS011;61711;52.266;10.542;2023-02-22T10:36:59;17.30;;;7.28;;
73474;SDS011;61711;52.266;10.542;2023-02-22T10:39:32;15.32;;;6.95;;
73474;SDS011;61711;52.266;10.542;2023-02-22T10:42:00;17.27;;;7.35;;
73474;SDS011;61711;52.266;10.542;2023-02-22T10:44:32;14.43;;;7.03;;
73474;SDS011;61711;52.266;10.542;2023-02-22T10:47:02;14.70;;;7.20;;
73474;SDS011;61711;52.266;10.542;2023-02-22T10:49:40;17.38;;;7.85;;
73474;SDS011;61711;52.266;10.542;2023-02-22T10:52:12;14.40;;;7.20;;
73474;SDS011;61711;52.266;10.542;2023-02-22T10:54:39;16.10;;;7.45;;
73474;SDS011;61711;52.266;10.542;2023-02-22T10:57:06;18.88;;;8.40;;
73474;SDS011;61711;52.266;10.542;2023-02-22T10:59:33;18.08;;;8.80;;
73474;SDS011;61711;52.266;10.542;2023-02-22T11:02:00;18.33;;;7.97;;
73474;SDS011;61711;52.266;10.542;2023-02-22T11:04:26;17.77;;;8.65;;
73474;SDS011;61711;52.266;10.542;2023-02-22T11:09:24;17.10;;;8.80;;
73474;SDS011;61711;52.266;10.542;2023-02-22T11:14:37;19.50;;;8.68;;
73474;SDS011;61711;52.266;10.542;2023-02-22T11:17:05;22.00;;;8.98;;
73474;SDS011;61711;52.266;10.542;2023-02-22T11:19:32;17.15;;;8.57;;
73474;SDS011;61711;52.266;10.542;2023-02-22T11:24:46;20.27;;;9.15;;
73474;SDS011;61711;52.266;10.542;2023-02-22T11:30:18;17.33;;;8.52;;
73474;SDS011;61711;52.266;10.542;2023-02-22T11:32:43;21.50;;;9.02;;
73474;SDS011;61711;52.266;10.542;2023-02-22T11:35:25;23.00;;;9.23;;
73474;SDS011;61711;52.266;10.542;2023-02-22T11:38:08;18.23;;;8.20;;
73474;SDS011;61711;52.266;10.542;2023-02-22T11:40:34;21.17;;;9.57;;
73474;SDS011;61711;52.266;10.542;2023-02-22T11:43:07;15.73;;;7.90;;
73474;SDS011;61711;52.266;10.542;2023-02-22T11:45:36;18.27;;;8.20;;
73474;SDS011;61711;52.266;10.542;2023-02-22T11:48:03;16.30;;;8.25;;
73474;SDS011;61711;52.266;10.542;2023-02-22T11:50:33;21.95;;;8.68;;
73474;SDS011;61711;52.266;10.542;2023-02-22T11:58:27;20.80;;;8.57;;
73474;SDS011;61711;52.266;10.542;2023-02-22T12:01:01;17.45;;;8.65;;
73474;SDS011;61711;52.266;10.542;2023-02-22T12:09:09;20.73;;;9.02;;
73474;SDS011;61711;52.266;10.542;2023-02-22T12:21:51;18.33;;;8.65;;
73474;SDS011;61711;52.266;10.542;2023-02-22T12:24:20;18.45;;;9.43;;
73474;SDS011;61711;52.266;10.542;2023-02-22T12:26:58;16.67;;;8.55;;
73474;SDS011;61711;52.266;10.542;2023-02-22T12:29:37;20.05;;;9.07;;
73474;SDS011;61711;52.266;10.542;2023-02-22T12:32:14;19.02;;;9.15;;
73474;SDS011;61711;52.266;10.542;2023-02-22T12:37:23;17.77;;;9.15;;
73474;SDS011;61711;52.266;10.542;2023-02-22T12:40:04;19.85;;;9.57;;
73474;SDS011;61711;52.266;10.542;2023-02-22T12:45:24;17.70;;;8.48;;
73474;SDS011;61711;52.266;10.542;2023-02-22T12:50:36;16.60;;;8.80;;
73474;SDS011;61711;52.266;10.542;2023-02-22T12:53:06;17.58;;;9.00;;
73474;SDS011;61711;52.266;10.542;2023-02-22T12:55:39;17.30;;;8.55;;
73474;SDS011;61711;52.266;10.542;2023-02-22T12:58:17;15.87;;;8.43;;
73474;SDS011;61711;52.266;10.542;2023-02-22T13:00:47;14.27;;;8.10;;
73474;SDS011;61711;52.266;10.542;2023-02-22T13:05:41;15.77;;;8.18;;
73474;SDS011;61711;52.266;10.542;2023-02-22T13:08:17;15.98;;;8.50;;
73474;SDS011;61711;52.266;10.542;2023-02-22T13:18:49;15.02;;;8.27;;
73474;SDS011;61711;52.266;10.542;2023-02-22T13:21:22;14.45;;;8.13;;
73474;SDS011;61711;52.266;10.542;2023-02-22T13:24:05;13.35;;;7.95;;
73474;SDS011;61711;52.266;10.542;2023-02-22T13:26:49;13.60;;;7.95;;
73474;SDS011;61711;52.266;10.542;2023-02-22T13:31:48;13.95;;;8.00;;
73474;SDS011;61711;52.266;10.542;2023-02-22T13:34:20;14.90;;;8.60;;
73474;SDS011;61711;52.266;10.542;2023-02-22T13:37:04;16.00;;;8.30;;
73474;SDS011;61711;52.266;10.542;2023-02-22T13:39:38;15.70;;;8.07;;
73474;SDS011;61711;52.266;10.542;2023-02-22T13:52:13;14.77;;;7.72;;
73474;SDS011;61711;52.266;10.542;2023-02-22T13:57:19;12.70;;;7.40;;
73474;SDS011;61711;52.266;10.542;2023-02-22T13:59:46;13.55;;;7.70;;
73474;SDS011;61711;52.266;10.542;2023-02-22T14:05:05;15.40;;;8.23;;
73474;SDS011;61711;52.266;10.542;2023-02-22T14:07:48;14.32;;;7.93;;
73474;SDS011;61711;52.266;10.542;2023-02-22T14:10:34;15.32;;;8.60;;
73474;SDS011;61711;52.266;10.542;2023-02-22T14:13:07;12.98;;;8.18;;
73474;SDS011;61711;52.266;10.542;2023-02-22T14:15:33;14.82;;;7.55;;
73474;SDS011;61711;52.266;10.542;2023-02-22T14:18:00;16.48;;;8.57;;
73474;SDS011;61711;52.266;10.542;2023-02-22T14:20:36;13.93;;;7.80;;
73474;SDS011;61711;52.266;10.542;2023-02-22T14:23:24;15.70;;;7.85;;
73474;SDS011;61711;52.266;10.542;2023-02-22T14:25:51;18.02;;;7.88;;
73474;SDS011;61711;52.266;10.542;2023-02-22T14:31:03;14.38;;;7.90;;
73474;SDS011;61711;52.266;10.542;2023-02-22T14:36:15;17.50;;;8.65;;
73474;SDS011;61711;52.266;10.542;2023-02-22T14:38:42;15.30;;;8.38;;
73474;SDS011;61711;52.266;10.542;2023-02-22T14:41:10;15.10;;;7.85;;
73474;SDS011;61711;52.266;10.542;2023-02-22T14:43:36;14.50;;;8.30;;
73474;SDS011;61711;52.266;10.542;2023-02-22T14:46:03;15.60;;;8.52;;
73474;SDS011;61711;52.266;10.542;2023-02-22T14:48:39;16.55;;;8.68;;
73474;SDS011;61711;52.266;10.542;2023-02-22T14:51:18;16.50;;;8.52;;
73474;SDS011;61711;52.266;10.542;2023-02-22T14:53:45;16.27;;;8.82;;
73474;SDS011;61711;52.266;10.542;2023-02-22T14:59:27;17.85;;;9.10;;
73474;SDS011;61711;52.266;10.542;2023-02-22T15:01:34;15.57;;;9.65;;
73474;SDS011;61711;52.266;10.542;2023-02-22T15:06:41;18.27;;;9.68;;
73474;SDS011;61711;52.266;10.542;2023-02-22T15:09:15;16.55;;;9.48;;
73474;SDS011;61711;52.266;10.542;2023-02-22T15:14:22;17.00;;;9.88;;
73474;SDS011;61711;52.266;10.542;2023-02-22T15:16:51;18.50;;;9.90;;
73474;SDS011;61711;52.266;10.542;2023-02-22T15:19:23;19.13;;;10.75;;
73474;SDS011;61711;52.266;10.542;2023-02-22T15:21:53;17.43;;;10.23;;
73474;SDS011;61711;52.266;10.542;2023-02-22T15:24:21;19.20;;;10.90;;
73474;SDS011;61711;52.266;10.542;2023-02-22T15:26:49;19.83;;;10.93;;
73474;SDS011;61711;52.266;10.542;2023-02-22T15:29:20;21.08;;;10.65;;
73474;SDS011;61711;52.266;10.542;2023-02-22T15:31:47;18.70;;;10.65;;
73474;SDS011;61711;52.266;10.542;2023-02-22T15:36:43;19.48;;;11.32;;
73474;SDS011;61711;52.266;10.542;2023-02-22T15:41:49;22.85;;;11.52;;
73474;SDS011;61711;52.266;10.542;2023-02-22T15:44:25;19.10;;;11.10;;
73474;SDS011;61711;52.266;10.542;2023-02-22T15:46:51;21.85;;;11.02;;
73474;SDS011;61711;52.266;10.542;2023-02-22T15:49:19;19.83;;;10.88;;
73474;SDS011;61711;52.266;10.542;2023-02-22T15:51:47;19.73;;;11.55;;
73474;SDS011;61711;52.266;10.542;2023-02-22T15:54:16;19.73;;;11.02;;
73474;SDS011;61711;52.266;10.542;2023-02-22T15:56:47;19.42;;;11.23;;
73474;SDS011;61711;52.266;10.542;2023-02-22T15:59:16;20.83;;;11.05;;
73474;SDS011;61711;52.266;10.542;2023-02-22T16:01:43;19.90;;;11.57;;
73474;SDS011;61711;52.266;10.542;2023-02-22T16:04:17;19.17;;;10.32;;
73474;SDS011;61711;52.266;10.542;2023-02-22T16:06:44;20.98;;;10.70;;
73474;SDS011;61711;52.266;10.542;2023-02-22T16:11:40;16.85;;;9.85;;
73474;SDS011;61711;52.266;10.542;2023-02-22T16:16:49;17.33;;;10.15;;
73474;SDS011;61711;52.266;10.542;2023-02-22T16:22:04;19.92;;;10.45;;
73474;SDS011;61711;52.266;10.542;2023-02-22T16:24:37;20.80;;;11.30;;
73474;SDS011;61711;52.266;10.542;2023-02-22T16:27:14;19.42;;;10.90;;
73474;SDS011;61711;52.266;10.542;2023-02-22T16:29:40;19.90;;;10.95;;
73474;SDS011;61711;52.266;10.542;2023-02-22T16:32:07;19.55;;;10.68;;
73474;SDS011;61711;52.266;10.542;2023-02-22T16:34:33;19.77;;;10.60;;
73474;SDS011;61711;52.266;10.542;2023-02-22T16:36:59;23.40;;;10.82;;
73474;SDS011;61711;52.266;10.542;2023-02-22T16:39:29;22.02;;;11.40;;
73474;SDS011;61711;52.266;10.542;2023-02-22T16:41:59;20.75;;;10.98;;
73474;SDS011;61711;52.266;10.542;2023-02-22T16:44:25;21.15;;;11.15;;
73474;SDS011;61711;52.266;10.542;2023-02-22T16:46:51;23.35;;;10.77;;
73474;SDS011;61711;52.266;10.542;2023-02-22T16:49:18;21.90;;;11.25;;